sensor_id;sensor_type;location;lat;lon;timestamp;pressure;altitude;pressure_sealevel;temperature;humidity
32492;BME280;20605;49.742;18.802;2023-04-08T00:00:11;97824.94;;;3.33;100.00
32492;BME280;20605;49.742;18.802;2023-04-08T00:02:39;97826.83;;;3.31;100.00
32492;BME280;20605;49.742;18.802;2023-04-08T00:05:05;97828.20;;;3.34;100.00
32492;BME280;20605;49.742;18.802;2023-04-08T00:07:31;97825.45;;;3.37;100.00
32492;BME280;20605;49.742;18.802;2023-04-08T00:09:57;97830.08;;;3.36;100.00
32492;BME280;20605;49.742;18.802;2023-04-08T00:12:23;97828.02;;;3.38;100.00
32492;BME280;20605;49.742;18.802;2023-04-08T00:14:49;97828.36;;;3.37;100.00
32492;BME280;20605;49.742;18.802;2023-04-08T00:17:15;97828.52;;;3.36;100.00
32492;BME280;20605;49.742;18.802;2023-04-08T00:19:41;97831.62;;;3.37;100.00
32492;BME280;20605;49.742;18.802;2023-04-08T00:22:07;97831.45;;;3.39;100.00
32492;BME280;20605;49.742;18.802;2023-04-08T00:24:33;97833.84;;;3.42;100.00
32492;BME280;20605;49.742;18.802;2023-04-08T00:26:59;97832.29;;;3.42;100.00
32492;BME280;20605;49.742;18.802;2023-04-08T00:29:25;97834.17;;;3.42;100.00
32492;BME280;20605;49.742;18.802;2023-04-08T00:31:51;97835.90;;;3.43;100.00
32492;BME280;20605;49.742;18.802;2023-04-08T00:34:17;97841.04;;;3.43;100.00
32492;BME280;20605;49.742;18.802;2023-04-08T00:36:43;97841.21;;;3.42;100.00
32492;BME280;20605;49.742;18.802;2023-04-08T00:39:21;97843.80;;;3.42;100.00
32492;BME280;20605;49.742;18.802;2023-04-08T00:41:47;97834.70;;;3.44;100.00
32492;BME280;20605;49.742;18.802;2023-04-08T00:44:13;97837.95;;;3.44;100.00
32492;BME280;20605;49.742;18.802;2023-04-08T00:46:39;97839.32;;;3.45;100.00
32492;BME280;20605;49.742;18.802;2023-04-08T00:49:06;97845.50;;;3.45;100.00
32492;BME280;20605;49.742;18.802;2023-04-08T00:51:33;97847.73;;;3.45;100.00
32492;BME280;20605;49.742;18.802;2023-04-08T00:54:02;97850.30;;;3.43;100.00
32492;BME280;20605;49.742;18.802;2023-04-08T00:56:33;97852.55;;;3.42;100.00
32492;BME280;20605;49.742;18.802;2023-04-08T00:59:00;97855.81;;;3.42;100.00
32492;BME280;20605;49.742;18.802;2023-04-08T01:10:34;97855.48;;;3.34;100.00
32492;BME280;20605;49.742;18.802;2023-04-08T01:13:13;97857.72;;;3.31;100.00
32492;BME280;20605;49.742;18.802;2023-04-08T01:15:41;97855.65;;;3.32;100.00
32492;BME280;20605;49.742;18.802;2023-04-08T01:18:11;97854.80;;;3.33;100.00
32492;BME280;20605;49.742;18.802;2023-04-08T01:20:40;97855.31;;;3.33;100.00
32492;BME280;20605;49.742;18.802;2023-04-08T01:23:12;97853.92;;;3.38;100.00
32492;BME280;20605;49.742;18.802;2023-04-08T01:26:09;97853.92;;;3.40;100.00
32492;BME280;20605;49.742;18.802;2023-04-08T01:28:35;97850.66;;;3.43;100.00
32492;BME280;20605;49.742;18.802;2023-04-08T01:31:02;97852.71;;;3.44;100.00
32492;BME280;20605;49.742;18.802;2023-04-08T01:33:30;97854.77;;;3.48;100.00
32492;BME280;20605;49.742;18.802;2023-04-08T01:35:56;97855.61;;;3.49;100.00
32492;BME280;20605;49.742;18.802;2023-04-08T01:38:24;97857.33;;;3.52;100.00
32492;BME280;20605;49.742;18.802;2023-04-08T01:40:56;97862.30;;;3.53;100.00
32492;BME280;20605;49.742;18.802;2023-04-08T01:43:23;97860.42;;;3.51;100.00
32492;BME280;20605;49.742;18.802;2023-04-08T01:45:50;97863.33;;;3.52;100.00
32492;BME280;20605;49.742;18.802;2023-04-08T01:48:19;97861.27;;;3.53;100.00
32492;BME280;20605;49.742;18.802;2023-04-08T01:50:46;97861.95;;;3.54;100.00
32492;BME280;20605;49.742;18.802;2023-04-08T01:53:12;97864.88;;;3.53;100.00
32492;BME280;20605;49.742;18.802;2023-04-08T01:55:40;97865.92;;;3.45;100.00
32492;BME280;20605;49.742;18.802;2023-04-08T01:58:07;97865.59;;;3.41;100.00
32492;BME280;20605;49.742;18.802;2023-04-08T02:00:38;97866.10;;;3.42;100.00
32492;BME280;20605;49.742;18.802;2023-04-08T02:03:05;97868.48;;;3.48;100.00
32492;BME280;20605;49.742;18.802;2023-04-08T02:05:33;97869.52;;;3.50;100.00
32492;BME280;20605;49.742;18.802;2023-04-08T02:07:59;97870.04;;;3.46;100.00
32492;BME280;20605;49.742;18.802;2023-04-08T02:10:26;97869.55;;;3.38;100.00
32492;BME280;20605;49.742;18.802;2023-04-08T02:12:52;97873.84;;;3.36;100.00
32492;BME280;20605;49.742;18.802;2023-04-08T02:15:19;97874.36;;;3.30;100.00
32492;BME280;20605;49.742;18.802;2023-04-08T02:17:51;97877.80;;;3.26;100.00
32492;BME280;20605;49.742;18.802;2023-04-08T02:20:24;97880.21;;;3.23;100.00
32492;BME280;20605;49.742;18.802;2023-04-08T02:25:42;97885.02;;;3.16;100.00
32492;BME280;20605;49.742;18.802;2023-04-08T02:28:10;97880.58;;;3.06;100.00
32492;BME280;20605;49.742;18.802;2023-04-08T02:30:39;97878.17;;;2.96;100.00
32492;BME280;20605;49.742;18.802;2023-04-08T02:33:07;97881.61;;;2.90;100.00
32492;BME280;20605;49.742;18.802;2023-04-08T02:35:35;97883.66;;;2.96;100.00
32492;BME280;20605;49.742;18.802;2023-04-08T02:38:03;97880.74;;;3.04;100.00
32492;BME280;20605;49.742;18.802;2023-04-08T02:40:31;97882.98;;;3.11;100.00
32492;BME280;20605;49.742;18.802;2023-04-08T02:42:59;97883.48;;;3.15;100.00
32492;BME280;20605;49.742;18.802;2023-04-08T02:45:27;97880.91;;;3.10;100.00
32492;BME280;20605;49.742;18.802;2023-04-08T02:47:56;97879.71;;;3.08;100.00
32492;BME280;20605;49.742;18.802;2023-04-08T02:50:23;97880.75;;;3.06;100.00
32492;BME280;20605;49.742;18.802;2023-04-08T02:52:53;97881.09;;;3.04;100.00
32492;BME280;20605;49.742;18.802;2023-04-08T02:55:20;97883.32;;;3.03;100.00
32492;BME280;20605;49.742;18.802;2023-04-08T02:57:46;97887.09;;;3.08;100.00
32492;BME280;20605;49.742;18.802;2023-04-08T03:00:13;97888.97;;;3.14;100.00
32492;BME280;20605;49.742;18.802;2023-04-08T03:02:42;97892.91;;;3.20;100.00
32492;BME280;20605;49.742;18.802;2023-04-08T03:05:09;97894.98;;;3.22;100.00
32492;BME280;20605;49.742;18.802;2023-04-08T03:07:35;97897.04;;;3.19;100.00
32492;BME280;20605;49.742;18.802;2023-04-08T03:10:01;97895.49;;;3.09;100.00
32492;BME280;20605;49.742;18.802;2023-04-08T03:12:27;97897.21;;;3.04;100.00
32492;BME280;20605;49.742;18.802;2023-04-08T03:14:53;97898.41;;;3.01;100.00
32492;BME280;20605;49.742;18.802;2023-04-08T03:17:20;97899.27;;;2.91;100.00
32492;BME280;20605;49.742;18.802;2023-04-08T03:19:46;97898.75;;;2.79;100.00
32492;BME280;20605;49.742;18.802;2023-04-08T03:22:12;97897.55;;;2.71;100.00
32492;BME280;20605;49.742;18.802;2023-04-08T03:24:38;97904.73;;;2.67;100.00
32492;BME280;20605;49.742;18.802;2023-04-08T03:27:05;97907.66;;;2.70;100.00
32492;BME280;20605;49.742;18.802;2023-04-08T03:29:31;97909.55;;;2.70;100.00
32492;BME280;20605;49.742;18.802;2023-04-08T03:31:57;97908.70;;;2.72;100.00
32492;BME280;20605;49.742;18.802;2023-04-08T03:34:23;97909.73;;;2.69;100.00
32492;BME280;20605;49.742;18.802;2023-04-08T03:36:49;97910.58;;;2.68;100.00
32492;BME280;20605;49.742;18.802;2023-04-08T03:39:16;97914.00;;;2.69;100.00
32492;BME280;20605;49.742;18.802;2023-04-08T03:41:46;97910.07;;;2.74;100.00
32492;BME280;20605;49.742;18.802;2023-04-08T03:44:12;97917.79;;;2.83;100.00
32492;BME280;20605;49.742;18.802;2023-04-08T03:46:42;97919.34;;;2.88;100.00
32492;BME280;20605;49.742;18.802;2023-04-08T03:49:08;97918.82;;;2.81;100.00
32492;BME280;20605;49.742;18.802;2023-04-08T03:51:34;97918.83;;;2.80;100.00
32492;BME280;20605;49.742;18.802;2023-04-08T03:53:59;97918.48;;;2.84;100.00
32492;BME280;20605;49.742;18.802;2023-04-08T03:56:25;97923.46;;;2.87;100.00
32492;BME280;20605;49.742;18.802;2023-04-08T03:58:55;97923.97;;;2.89;100.00
32492;BME280;20605;49.742;18.802;2023-04-08T04:01:20;97933.41;;;2.93;100.00
32492;BME280;20605;49.742;18.802;2023-04-08T04:03:46;97936.33;;;2.99;100.00
32492;BME280;20605;49.742;18.802;2023-04-08T04:06:12;97940.44;;;3.04;100.00
32492;BME280;20605;49.742;18.802;2023-04-08T04:08:40;97944.39;;;3.13;100.00
32492;BME280;20605;49.742;18.802;2023-04-08T04:11:06;97945.25;;;3.19;100.00
32492;BME280;20605;49.742;18.802;2023-04-08T04:13:32;97948.85;;;3.22;100.00
32492;BME280;20605;49.742;18.802;2023-04-08T04:15:58;97945.77;;;3.22;100.00
32492;BME280;20605;49.742;18.802;2023-04-08T04:18:32;97949.02;;;3.21;100.00
32492;BME280;20605;49.742;18.802;2023-04-08T04:20:58;97951.42;;;3.20;100.00
32492;BME280;20605;49.742;18.802;2023-04-08T04:23:24;97953.99;;;3.19;100.00
32492;BME280;20605;49.742;18.802;2023-04-08T04:25:50;97957.60;;;3.20;100.00
32492;BME280;20605;49.742;18.802;2023-04-08T04:28:17;97957.43;;;3.22;100.00
32492;BME280;20605;49.742;18.802;2023-04-08T04:30:43;97959.83;;;3.24;100.00
32492;BME280;20605;49.742;18.802;2023-04-08T04:33:10;97958.63;;;3.26;100.00
32492;BME280;20605;49.742;18.802;2023-04-08T04:36:00;97959.31;;;3.29;100.00
32492;BME280;20605;49.742;18.802;2023-04-08T04:38:26;97963.27;;;3.31;100.00
32492;BME280;20605;49.742;18.802;2023-04-08T04:40:52;97968.58;;;3.29;100.00
32492;BME280;20605;49.742;18.802;2023-04-08T04:43:18;97969.10;;;3.32;100.00
32492;BME280;20605;49.742;18.802;2023-04-08T04:45:44;97970.81;;;3.35;100.00
32492;BME280;20605;49.742;18.802;2023-04-08T04:48:09;97970.98;;;3.39;100.00
32492;BME280;20605;49.742;18.802;2023-04-08T04:50:35;97969.10;;;3.40;100.00
32492;BME280;20605;49.742;18.802;2023-04-08T04:53:02;97969.61;;;3.38;100.00
32492;BME280;20605;49.742;18.802;2023-04-08T04:55:28;97971.84;;;3.39;100.00
32492;BME280;20605;49.742;18.802;2023-04-08T04:57:54;97977.51;;;3.42;100.00
32492;BME280;20605;49.742;18.802;2023-04-08T05:00:20;97975.61;;;3.48;100.00
32492;BME280;20605;49.742;18.802;2023-04-08T05:02:46;97977.33;;;3.47;100.00
32492;BME280;20605;49.742;18.802;2023-04-08T05:05:14;97981.45;;;3.45;100.00
32492;BME280;20605;49.742;18.802;2023-04-08T05:07:40;97980.60;;;3.45;100.00
32492;BME280;20605;49.742;18.802;2023-04-08T05:10:18;97979.90;;;3.45;100.00
32492;BME280;20605;49.742;18.802;2023-04-08T05:12:43;97978.54;;;3.46;100.00
32492;BME280;20605;49.742;18.802;2023-04-08T05:15:09;97983.86;;;3.47;100.00
32492;BME280;20605;49.742;18.802;2023-04-08T05:17:35;97990.71;;;3.49;100.00
32492;BME280;20605;49.742;18.802;2023-04-08T05:20:01;97996.89;;;3.52;100.00
32492;BME280;20605;49.742;18.802;2023-04-08T05:22:27;97999.13;;;3.52;100.00
32492;BME280;20605;49.742;18.802;2023-04-08T05:24:53;97999.30;;;3.54;100.00
32492;BME280;20605;49.742;18.802;2023-04-08T05:27:19;98002.05;;;3.51;100.00
32492;BME280;20605;49.742;18.802;2023-04-08T05:29:46;98007.20;;;3.52;100.00
32492;BME280;20605;49.742;18.802;2023-04-08T05:32:33;98006.00;;;3.54;100.00
32492;BME280;20605;49.742;18.802;2023-04-08T05:35:24;98006.33;;;3.62;100.00
32492;BME280;20605;49.742;18.802;2023-04-08T05:38:08;98007.17;;;3.71;100.00
32492;BME280;20605;49.742;18.802;2023-04-08T05:40:34;98010.27;;;3.75;100.00
32492;BME280;20605;49.742;18.802;2023-04-08T05:43:00;98017.82;;;3.80;100.00
32492;BME280;20605;49.742;18.802;2023-04-08T05:45:29;98016.79;;;3.81;100.00
32492;BME280;20605;49.742;18.802;2023-04-08T05:47:55;98017.81;;;3.82;100.00
32492;BME280;20605;49.742;18.802;2023-04-08T05:50:21;98020.38;;;3.86;100.00
32492;BME280;20605;49.742;18.802;2023-04-08T05:52:47;98027.93;;;3.90;100.00
32492;BME280;20605;49.742;18.802;2023-04-08T05:55:14;98030.64;;;3.91;100.00
32492;BME280;20605;49.742;18.802;2023-04-08T05:57:41;98037.34;;;3.94;100.00
32492;BME280;20605;49.742;18.802;2023-04-08T06:00:08;98039.92;;;3.93;100.00
32492;BME280;20605;49.742;18.802;2023-04-08T06:02:36;98041.14;;;3.90;100.00
32492;BME280;20605;49.742;18.802;2023-04-08T06:05:02;98042.35;;;3.90;100.00
32492;BME280;20605;49.742;18.802;2023-04-08T06:07:31;98043.91;;;3.89;100.00
32492;BME280;20605;49.742;18.802;2023-04-08T06:09:57;98043.70;;;3.96;100.00
32492;BME280;20605;49.742;18.802;2023-04-08T06:12:23;98042.66;;;4.03;100.00
32492;BME280;20605;49.742;18.802;2023-04-08T06:14:54;98046.42;;;4.09;100.00
32492;BME280;20605;49.742;18.802;2023-04-08T06:17:21;98045.91;;;4.10;100.00
32492;BME280;20605;49.742;18.802;2023-04-08T06:19:47;98047.61;;;4.17;100.00
32492;BME280;20605;49.742;18.802;2023-04-08T06:22:12;98048.25;;;4.33;100.00
32492;BME280;20605;49.742;18.802;2023-04-08T06:24:38;98045.63;;;4.47;100.00
32492;BME280;20605;49.742;18.802;2023-04-08T06:27:09;98051.74;;;4.65;100.00
32492;BME280;20605;49.742;18.802;2023-04-08T06:29:35;98051.16;;;4.79;100.00
32492;BME280;20605;49.742;18.802;2023-04-08T06:32:01;98059.05;;;4.87;100.00
32492;BME280;20605;49.742;18.802;2023-04-08T06:34:28;98056.61;;;4.93;100.00
32492;BME280;20605;49.742;18.802;2023-04-08T06:36:55;98060.53;;;5.00;100.00
32492;BME280;20605;49.742;18.802;2023-04-08T06:39:23;98064.42;;;5.11;100.00
32492;BME280;20605;49.742;18.802;2023-04-08T06:41:49;98069.05;;;5.14;100.00
32492;BME280;20605;49.742;18.802;2023-04-08T06:44:30;98069.23;;;5.13;100.00
32492;BME280;20605;49.742;18.802;2023-04-08T06:46:56;98069.35;;;5.19;100.00
32492;BME280;20605;49.742;18.802;2023-04-08T06:49:22;98069.14;;;5.23;100.00
32492;BME280;20605;49.742;18.802;2023-04-08T06:51:48;98068.76;;;5.29;100.00
32492;BME280;20605;49.742;18.802;2023-04-08T06:54:14;98070.92;;;5.39;100.00
32492;BME280;20605;49.742;18.802;2023-04-08T06:56:40;98071.51;;;5.54;100.00
32492;BME280;20605;49.742;18.802;2023-04-08T06:59:06;98071.29;;;5.82;100.00
32492;BME280;20605;49.742;18.802;2023-04-08T07:01:32;98074.30;;;5.96;100.00
32492;BME280;20605;49.742;18.802;2023-04-08T07:03:59;98075.14;;;5.98;100.00
32492;BME280;20605;49.742;18.802;2023-04-08T07:06:26;98080.02;;;6.11;100.00
32492;BME280;20605;49.742;18.802;2023-04-08T07:08:52;98086.15;;;6.18;100.00
32492;BME280;20605;49.742;18.802;2023-04-08T07:11:18;98090.42;;;6.23;100.00
32492;BME280;20605;49.742;18.802;2023-04-08T07:13:44;98095.14;;;6.34;100.00
32492;BME280;20605;49.742;18.802;2023-04-08T07:16:10;98091.26;;;6.43;100.00
32492;BME280;20605;49.742;18.802;2023-04-08T07:18:45;98094.34;;;6.58;100.00
32492;BME280;20605;49.742;18.802;2023-04-08T07:24:16;98094.98;;;6.62;100.00
32492;BME280;20605;49.742;18.802;2023-04-08T07:48:00;98133.27;;;6.13;100.00
32492;BME280;20605;49.742;18.802;2023-04-08T08:16:36;98151.83;;;6.21;100.00
32492;BME280;20605;49.742;18.802;2023-04-08T08:25:39;98143.56;;;7.27;100.00
32492;BME280;20605;49.742;18.802;2023-04-08T08:29:26;98145.39;;;8.62;100.00
32492;BME280;20605;49.742;18.802;2023-04-08T08:33:23;98144.73;;;9.22;100.00
32492;BME280;20605;49.742;18.802;2023-04-08T08:36:20;98151.06;;;9.66;100.00
32492;BME280;20605;49.742;18.802;2023-04-08T08:40:07;98151.73;;;9.82;100.00
32492;BME280;20605;49.742;18.802;2023-04-08T08:43:53;98162.20;;;10.17;100.00
32492;BME280;20605;49.742;18.802;2023-04-08T08:50:02;98168.81;;;10.01;100.00
32492;BME280;20605;49.742;18.802;2023-04-08T08:53:48;98169.30;;;9.56;100.00
32492;BME280;20605;49.742;18.802;2023-04-08T08:57:41;98167.89;;;9.16;100.00
32492;BME280;20605;49.742;18.802;2023-04-08T09:01:37;98167.50;;;9.19;100.00
32492;BME280;20605;49.742;18.802;2023-04-08T09:05:23;98168.73;;;9.02;100.00
32492;BME280;20605;49.742;18.802;2023-04-08T09:09:07;98170.98;;;8.84;100.00
32492;BME280;20605;49.742;18.802;2023-04-08T09:12:53;98171.08;;;8.87;100.00
32492;BME280;20605;49.742;18.802;2023-04-08T09:16:09;98171.05;;;9.39;100.00
32492;BME280;20605;49.742;18.802;2023-04-08T09:18:36;98175.76;;;9.70;100.00
32492;BME280;20605;49.742;18.802;2023-04-08T09:21:03;98179.46;;;9.75;100.00
32492;BME280;20605;49.742;18.802;2023-04-08T09:23:46;98180.45;;;10.69;100.00
32492;BME280;20605;49.742;18.802;2023-04-08T09:26:22;98175.98;;;12.12;100.00
32492;BME280;20605;49.742;18.802;2023-04-08T09:29:06;98176.16;;;12.23;100.00
32492;BME280;20605;49.742;18.802;2023-04-08T09:31:37;98176.59;;;12.87;100.00
32492;BME280;20605;49.742;18.802;2023-04-08T09:34:13;98177.98;;;13.41;100.00
32492;BME280;20605;49.742;18.802;2023-04-08T09:36:41;98177.31;;;13.40;100.00
32492;BME280;20605;49.742;18.802;2023-04-08T09:39:07;98179.73;;;13.45;100.00
32492;BME280;20605;49.742;18.802;2023-04-08T09:41:35;98185.86;;;12.91;100.00
32492;BME280;20605;49.742;18.802;2023-04-08T09:44:06;98184.48;;;12.34;100.00
32492;BME280;20605;49.742;18.802;2023-04-08T09:49:31;98186.10;;;11.83;100.00
32492;BME280;20605;49.742;18.802;2023-04-08T09:52:20;98187.98;;;12.02;100.00
32492;BME280;20605;49.742;18.802;2023-04-08T09:57:21;98189.31;;;11.64;100.00
32492;BME280;20605;49.742;18.802;2023-04-08T10:00:03;98189.33;;;11.52;100.00
32492;BME280;20605;49.742;18.802;2023-04-08T10:03:09;98190.07;;;11.90;100.00
32492;BME280;20605;49.742;18.802;2023-04-08T10:05:37;98196.92;;;11.82;100.00
32492;BME280;20605;49.742;18.802;2023-04-08T10:08:05;98194.72;;;11.58;100.00
32492;BME280;20605;49.742;18.802;2023-04-08T10:10:33;98192.61;;;11.40;100.00
32492;BME280;20605;49.742;18.802;2023-04-08T10:13:03;98197.48;;;11.22;100.00
32492;BME280;20605;49.742;18.802;2023-04-08T10:15:30;98197.23;;;10.99;100.00
32492;BME280;20605;49.742;18.802;2023-04-08T10:23:05;98204.34;;;10.02;100.00
32492;BME280;20605;49.742;18.802;2023-04-08T10:25:39;98209.60;;;9.69;100.00
32492;BME280;20605;49.742;18.802;2023-04-08T10:30:45;98205.05;;;9.04;100.00
32492;BME280;20605;49.742;18.802;2023-04-08T10:33:17;98207.35;;;8.64;100.00
32492;BME280;20605;49.742;18.802;2023-04-08T10:35:48;98207.74;;;8.29;100.00
32492;BME280;20605;49.742;18.802;2023-04-08T10:38:15;98204.29;;;8.06;100.00
32492;BME280;20605;49.742;18.802;2023-04-08T10:40:42;98204.08;;;7.86;100.00
32492;BME280;20605;49.742;18.802;2023-04-08T10:43:10;98202.61;;;7.70;100.00
32492;BME280;20605;49.742;18.802;2023-04-08T10:45:37;98200.15;;;7.72;100.00
32492;BME280;20605;49.742;18.802;2023-04-08T10:48:14;98201.60;;;7.89;100.00
32492;BME280;20605;49.742;18.802;2023-04-08T10:50:43;98204.15;;;8.14;100.00
32492;BME280;20605;49.742;18.802;2023-04-08T10:53:10;98203.77;;;8.29;100.00
32492;BME280;20605;49.742;18.802;2023-04-08T10:55:36;98201.30;;;8.54;100.00
32492;BME280;20605;49.742;18.802;2023-04-08T10:58:10;98195.62;;;8.91;100.00
32492;BME280;20605;49.742;18.802;2023-04-08T11:00:38;98191.45;;;9.33;100.00
32492;BME280;20605;49.742;18.802;2023-04-08T11:03:06;98190.11;;;9.87;100.00
32492;BME280;20605;49.742;18.802;2023-04-08T11:05:33;98190.20;;;10.29;100.00
32492;BME280;20605;49.742;18.802;2023-04-08T11:07:59;98184.17;;;10.47;100.00
32492;BME280;20605;49.742;18.802;2023-04-08T11:10:26;98188.09;;;10.31;100.00
32492;BME280;20605;49.742;18.802;2023-04-08T11:12:54;98187.89;;;10.24;100.00
32492;BME280;20605;49.742;18.802;2023-04-08T11:15:21;98193.65;;;10.07;100.00
32492;BME280;20605;49.742;18.802;2023-04-08T11:17:48;98190.71;;;9.76;100.00
32492;BME280;20605;49.742;18.802;2023-04-08T11:20:14;98191.08;;;9.52;100.00
32492;BME280;20605;49.742;18.802;2023-04-08T11:22:46;98194.10;;;9.31;100.00
32492;BME280;20605;49.742;18.802;2023-04-08T11:25:13;98191.99;;;9.15;100.00
32492;BME280;20605;49.742;18.802;2023-04-08T11:27:39;98186.10;;;9.08;100.00
32492;BME280;20605;49.742;18.802;2023-04-08T11:30:09;98187.58;;;9.11;100.00
32492;BME280;20605;49.742;18.802;2023-04-08T11:32:36;98185.98;;;9.12;100.00
32492;BME280;20605;49.742;18.802;2023-04-08T11:35:07;98186.86;;;9.21;100.00
32492;BME280;20605;49.742;18.802;2023-04-08T11:37:37;98180.67;;;9.27;99.90
32492;BME280;20605;49.742;18.802;2023-04-08T11:40:09;98180.21;;;9.40;100.00
32492;BME280;20605;49.742;18.802;2023-04-08T11:42:36;98186.16;;;9.55;99.04
32492;BME280;20605;49.742;18.802;2023-04-08T11:45:10;98185.88;;;9.52;99.23
32492;BME280;20605;49.742;18.802;2023-04-08T11:47:39;98180.91;;;9.57;97.99
32492;BME280;20605;49.742;18.802;2023-04-08T11:50:05;98184.11;;;9.53;97.53
32492;BME280;20605;49.742;18.802;2023-04-08T11:52:45;98181.88;;;9.52;97.43
32492;BME280;20605;49.742;18.802;2023-04-08T11:55:25;98181.15;;;9.61;97.80
32492;BME280;20605;49.742;18.802;2023-04-08T11:57:53;98178.60;;;9.67;96.74
32492;BME280;20605;49.742;18.802;2023-04-08T12:00:20;98176.18;;;9.67;97.56
32492;BME280;20605;49.742;18.802;2023-04-08T12:02:47;98173.23;;;9.75;98.14
32492;BME280;20605;49.742;18.802;2023-04-08T12:05:14;98171.70;;;9.88;98.39
32492;BME280;20605;49.742;18.802;2023-04-08T12:07:41;98171.02;;;10.18;97.49
32492;BME280;20605;49.742;18.802;2023-04-08T12:10:08;98169.92;;;10.48;96.06
32492;BME280;20605;49.742;18.802;2023-04-08T12:12:34;98170.30;;;10.67;94.75
32492;BME280;20605;49.742;18.802;2023-04-08T12:15:00;98172.86;;;10.88;95.04
32492;BME280;20605;49.742;18.802;2023-04-08T12:17:26;98169.35;;;10.89;92.56
32492;BME280;20605;49.742;18.802;2023-04-08T12:19:52;98167.23;;;10.84;92.95
32492;BME280;20605;49.742;18.802;2023-04-08T12:22:19;98166.96;;;10.88;92.37
32492;BME280;20605;49.742;18.802;2023-04-08T12:24:45;98171.14;;;10.81;93.89
32492;BME280;20605;49.742;18.802;2023-04-08T12:27:11;98169.20;;;10.62;93.52
32492;BME280;20605;49.742;18.802;2023-04-08T12:29:37;98169.70;;;10.37;94.46
32492;BME280;20605;49.742;18.802;2023-04-08T12:32:03;98175.62;;;10.14;94.94
32492;BME280;20605;49.742;18.802;2023-04-08T12:34:32;98173.42;;;9.89;95.44
32492;BME280;20605;49.742;18.802;2023-04-08T12:36:58;98177.55;;;9.68;96.17
32492;BME280;20605;49.742;18.802;2023-04-08T12:39:24;98176.89;;;9.50;96.78
32492;BME280;20605;49.742;18.802;2023-04-08T12:41:50;98175.27;;;9.28;97.15
32492;BME280;20605;49.742;18.802;2023-04-08T12:44:16;98184.20;;;9.15;98.25
32492;BME280;20605;49.742;18.802;2023-04-08T12:46:42;98178.77;;;9.10;98.44
32492;BME280;20605;49.742;18.802;2023-04-08T12:49:08;98183.24;;;9.04;98.58
32492;BME280;20605;49.742;18.802;2023-04-08T12:51:34;98179.43;;;8.95;98.65
32492;BME280;20605;49.742;18.802;2023-04-08T12:54:01;98173.91;;;8.93;99.88
32492;BME280;20605;49.742;18.802;2023-04-08T12:56:29;98173.61;;;9.00;99.47
32492;BME280;20605;49.742;18.802;2023-04-08T12:58:55;98172.63;;;9.06;99.90
32492;BME280;20605;49.742;18.802;2023-04-08T13:01:25;98170.58;;;9.20;100.00
32492;BME280;20605;49.742;18.802;2023-04-08T13:03:55;98171.61;;;9.29;99.48
32492;BME280;20605;49.742;18.802;2023-04-08T13:06:21;98171.48;;;9.19;99.48
32492;BME280;20605;49.742;18.802;2023-04-08T13:08:47;98173.80;;;9.15;99.45
32492;BME280;20605;49.742;18.802;2023-04-08T13:11:13;98169.30;;;9.15;99.52
32492;BME280;20605;49.742;18.802;2023-04-08T13:13:38;98164.24;;;9.16;99.08
32492;BME280;20605;49.742;18.802;2023-04-08T13:16:10;98173.30;;;9.14;99.15
32492;BME280;20605;49.742;18.802;2023-04-08T13:18:37;98173.66;;;9.14;99.55
32492;BME280;20605;49.742;18.802;2023-04-08T13:21:03;98171.66;;;9.10;99.30
32492;BME280;20605;49.742;18.802;2023-04-08T13:23:29;98174.17;;;8.98;99.18
32492;BME280;20605;49.742;18.802;2023-04-08T13:25:55;98169.30;;;8.91;99.53
32492;BME280;20605;49.742;18.802;2023-04-08T13:28:21;98178.30;;;8.81;99.87
32492;BME280;20605;49.742;18.802;2023-04-08T13:30:47;98176.39;;;8.72;99.75
32492;BME280;20605;49.742;18.802;2023-04-08T13:33:13;98173.67;;;8.60;99.91
32492;BME280;20605;49.742;18.802;2023-04-08T13:35:38;98174.85;;;8.52;100.00
32492;BME280;20605;49.742;18.802;2023-04-08T13:38:05;98182.62;;;8.53;100.00
32492;BME280;20605;49.742;18.802;2023-04-08T13:40:31;98181.28;;;8.50;100.00
32492;BME280;20605;49.742;18.802;2023-04-08T13:42:57;98178.98;;;8.43;100.00
32492;BME280;20605;49.742;18.802;2023-04-08T13:45:24;98177.37;;;8.36;100.00
32492;BME280;20605;49.742;18.802;2023-04-08T13:47:49;98178.80;;;8.32;100.00
32492;BME280;20605;49.742;18.802;2023-04-08T13:50:16;98174.30;;;8.31;100.00
32492;BME280;20605;49.742;18.802;2023-04-08T13:52:42;98175.26;;;8.26;100.00
32492;BME280;20605;49.742;18.802;2023-04-08T13:55:08;98179.13;;;8.22;100.00
32492;BME280;20605;49.742;18.802;2023-04-08T13:57:34;98186.58;;;8.22;100.00
32492;BME280;20605;49.742;18.802;2023-04-08T14:00:00;98184.92;;;8.17;100.00
32492;BME280;20605;49.742;18.802;2023-04-08T14:02:26;98185.11;;;8.05;100.00
32492;BME280;20605;49.742;18.802;2023-04-08T14:04:52;98175.70;;;7.99;100.00
32492;BME280;20605;49.742;18.802;2023-04-08T14:07:18;98173.15;;;7.96;100.00
32492;BME280;20605;49.742;18.802;2023-04-08T14:09:44;98174.81;;;7.89;100.00
32492;BME280;20605;49.742;18.802;2023-04-08T14:12:10;98172.98;;;7.84;100.00
32492;BME280;20605;49.742;18.802;2023-04-08T14:14:36;98173.79;;;7.78;100.00
32492;BME280;20605;49.742;18.802;2023-04-08T14:17:02;98178.39;;;7.71;100.00
32492;BME280;20605;49.742;18.802;2023-04-08T14:19:29;98180.66;;;7.69;100.00
32492;BME280;20605;49.742;18.802;2023-04-08T14:21:55;98183.27;;;7.67;100.00
32492;BME280;20605;49.742;18.802;2023-04-08T14:24:21;98184.22;;;7.62;100.00
32492;BME280;20605;49.742;18.802;2023-04-08T14:26:47;98179.00;;;7.52;100.00
32492;BME280;20605;49.742;18.802;2023-04-08T14:29:14;98190.18;;;7.42;100.00
32492;BME280;20605;49.742;18.802;2023-04-08T14:31:40;98190.44;;;7.36;100.00
32492;BME280;20605;49.742;18.802;2023-04-08T14:34:06;98187.51;;;7.35;100.00